KBOS/BOS METAR and TAF weather

Enter ICAO airport designator
Station Type Date Time Source
KBOS METAR 2020/02/26 09:54 UTC NOAA

KBOS 260954Z 36006KT 7SM FEW005 OVC050 07/04 A2995 RMK AO2 SLP141 T00720039 $


Station Type Date Time Source
KBOS Decoded METAR 2020/02/26 09:54 UTC NOAA

BOSTON LOGAN INTERNATIONAL, MA, United States (KBOS) 42-22N 071-01W 54M
Feb 26, 2020 - 04:54 AM EST / 2020.02.26 0954 UTC
Wind: from the N (360 degrees) at 7 MPH (6 KT):0
Visibility: 7 mile(s):0
Sky conditions: overcast
Temperature: 45.0 F (7.2 C)
Dew Point: 39.0 F (3.9 C)
Relative Humidity: 79%
Pressure (altimeter): 29.95 in. Hg (1014 hPa)
ob: KBOS 260954Z 36006KT 7SM FEW005 OVC050 07/04 A2995 RMK AO2 SLP141 T00720039
cycle: 10

Station Type Date Time Source
KBOS TAF 2020/02/26 09:07 UTC NOAA

TAF
AMD KBOS 260904Z 2609/2712 36005KT 4SM BR VCSH SCT010 BKN040
FM261200 02005KT P6SM OVC015
FM262200 07009KT P6SM OVC008
FM270400 08012G19KT 3SM BR VCSH OVC008
FM270900 09019G29KT 2SM RA BR OVC003

Example: see airport list